^^
Saratoga-Weather Station Historical Data
Daily Summary for October 6, 2020 Units:  Both    English   Metric
Daily Weekly Monthly Yearly Custom
  High: Low: Average:
Temperature: 57.7 °F /  14.3 °C 50.7 °F /  10.4 °C 53.8 °F /  12.1 °C
Dew Point: 53.6 °F /  12 °C 49.1 °F /  9.5 °C 51.1 °F /  10.6 °C
Humidity: 95% 83% 91%
Wind Speed: 14.1mph /  22.7km/h - 3.1mph /  5km/h
Wind Gust: 18mph /  29km/h - -
Wind- - SW
Pressure: 29.7 in /  1005.8 hPa 29.6 in /  1002.4 hPa -
Precipitation: 0.47 in /  11.9 mm    
Historical Graphs
 
 
Tabular Data for October 6, 2020
Time Temperature Dew Point Pressure Wind Wind Speed Wind Gust Humidity Rainfall Rate (Hourly) solar
00:04 54 °F /  12.2 °C 52.3 °F /  11.3 °C 29.6in /  1003.7hPa WNW 4mph /  6.4km/h 8mph /  12.9km/h 94% 0.08in /  2.0mm 0 W/m2
00:09 54 °F /  12.2 °C 52.3 °F /  11.3 °C 29.6in /  1003.7hPa North 0.9mph /  1.4km/h 11mph /  17.7km/h 94% 0.08in /  2.0mm 0 W/m2
00:14 54 °F /  12.2 °C 52.3 °F /  11.3 °C 29.6in /  1003.7hPa North 2mph /  3.2km/h 7mph /  11.3km/h 94% 0.07in /  1.8mm 0 W/m2
00:19 54 °F /  12.2 °C 52.3 °F /  11.3 °C 29.6in /  1003.7hPa WNW 2mph /  3.2km/h 11mph /  17.7km/h 94% 0.07in /  1.8mm 0 W/m2
00:24 54 °F /  12.2 °C 52.3 °F /  11.3 °C 29.6in /  1003.7hPa WNW 2mph /  3.2km/h 6mph /  9.7km/h 94% 0.07in /  1.8mm 0 W/m2
00:29 53.8 °F /  12.1 °C 52.2 °F /  11.2 °C 29.6in /  1003.7hPa NW 2mph /  3.2km/h 11mph /  17.7km/h 94% 0.07in /  1.8mm 0 W/m2
00:34 53.8 °F /  12.1 °C 52.2 °F /  11.2 °C 29.7in /  1004.1hPa West 2mph /  3.2km/h 7mph /  11.3km/h 94% 0.07in /  1.8mm 0 W/m2
00:39 53.8 °F /  12.1 °C 52.3 °F /  11.3 °C 29.7in /  1004.1hPa WNW 2mph /  3.2km/h 6mph /  9.7km/h 95% 0.07in /  1.8mm 0 W/m2
00:44 53.8 °F /  12.1 °C 52.3 °F /  11.3 °C 29.7in /  1004.1hPa WNW 2mph /  3.2km/h 9mph /  14.5km/h 95% 0.07in /  1.8mm 0 W/m2
00:49 53.8 °F /  12.1 °C 52.2 °F /  11.2 °C 29.7in /  1004.1hPa NNW 2.9mph /  4.7km/h 8mph /  12.9km/h 94% 0.06in /  1.5mm 0 W/m2
00:54 53.8 °F /  12.1 °C 52.2 °F /  11.2 °C 29.7in /  1004.4hPa NW 2mph /  3.2km/h 10mph /  16.1km/h 94% 0.05in /  1.3mm 0 W/m2
00:59 53.8 °F /  12.1 °C 52.2 °F /  11.2 °C 29.7in /  1004.1hPa NW 2mph /  3.2km/h 16mph /  25.7km/h 94% 0.06in /  1.5mm 0 W/m2
01:04 53.8 °F /  12.1 °C 52.2 °F /  11.2 °C 29.7in /  1004.4hPa WSW 2.9mph /  4.7km/h 11mph /  17.7km/h 94% 0.06in /  1.5mm 0 W/m2
01:09 53.6 °F /  12 °C 52 °F /  11.1 °C 29.7in /  1004.4hPa West 4mph /  6.4km/h 16mph /  25.7km/h 94% 0.06in /  1.5mm 0 W/m2
01:14 53.4 °F /  11.9 °C 51.8 °F /  11 °C 29.7in /  1004.4hPa NE 0.9mph /  1.4km/h 10mph /  16.1km/h 94% 0.06in /  1.5mm 0 W/m2
01:19 53.4 °F /  11.9 °C 51.8 °F /  11 °C 29.7in /  1004.1hPa West 2mph /  3.2km/h 13mph /  20.9km/h 94% 0.06in /  1.5mm 0 W/m2
01:24 53.6 °F /  12 °C 52 °F /  11.1 °C 29.7in /  1004.1hPa WSW 8.9mph /  14.3km/h 10mph /  16.1km/h 94% 0.06in /  1.5mm 0 W/m2
01:29 53.6 °F /  12 °C 52 °F /  11.1 °C 29.7in /  1004.4hPa WSW 8.1mph /  13km/h 13mph /  20.9km/h 94% 0.05in /  1.3mm 0 W/m2
01:34 53.6 °F /  12 °C 52 °F /  11.1 °C 29.7in /  1004.4hPa NW 2mph /  3.2km/h 7mph /  11.3km/h 94% 0.05in /  1.3mm 0 W/m2
01:39 53.6 °F /  12 °C 51.6 °F /  10.9 °C 29.7in /  1004.4hPa NNE 0.9mph /  1.4km/h 16mph /  25.7km/h 93% 0.05in /  1.3mm 0 W/m2
01:44 53.6 °F /  12 °C 51.6 °F /  10.9 °C 29.7in /  1004.7hPa NW 2.9mph /  4.7km/h 8mph /  12.9km/h 93% 0.04in /  1.0mm 0 W/m2
01:49 53.6 °F /  12 °C 51.6 °F /  10.9 °C 29.7in /  1004.7hPa West 6mph /  9.7km/h 8mph /  12.9km/h 93% 0.04in /  1.0mm 0 W/m2
01:54 53.4 °F /  11.9 °C 51.4 °F /  10.8 °C 29.7in /  1004.7hPa WNW 4mph /  6.4km/h 12mph /  19.3km/h 93% 0.04in /  1.0mm 0 W/m2
01:59 53.4 °F /  11.9 °C 51.4 °F /  10.8 °C 29.7in /  1004.7hPa West 4mph /  6.4km/h 12mph /  19.3km/h 93% 0.03in /  0.8mm 0 W/m2
02:04 53.4 °F /  11.9 °C 51.4 °F /  10.8 °C 29.7in /  1005.1hPa West 2mph /  3.2km/h 12mph /  19.3km/h 93% 0.02in /  0.5mm 0 W/m2
02:09 53.4 °F /  11.9 °C 51.4 °F /  10.8 °C 29.7in /  1005.1hPa West 10.1mph /  16.3km/h 10mph /  16.1km/h 93% 0.02in /  0.5mm 0 W/m2
02:14 53.4 °F /  11.9 °C 51.4 °F /  10.8 °C 29.7in /  1005.1hPa WNW 12.1mph /  19.5km/h 13mph /  20.9km/h 93% 0.02in /  0.5mm 0 W/m2
02:19 53.4 °F /  11.9 °C 51.1 °F /  10.6 °C 29.7in /  1005.1hPa West 2.9mph /  4.7km/h 7mph /  11.3km/h 92% 0.02in /  0.5mm 0 W/m2
02:24 53.2 °F /  11.8 °C 50.9 °F /  10.5 °C 29.7in /  1005.4hPa WSW 8.1mph /  13km/h 12mph /  19.3km/h 92% 0.01in /  0.2mm 0 W/m2
02:29 53.2 °F /  11.8 °C 50.9 °F /  10.5 °C 29.7in /  1005.4hPa NNW 0.9mph /  1.4km/h 5mph /  8km/h 92% 0.01in /  0.2mm 0 W/m2
02:34 53.2 °F /  11.8 °C 50.9 °F /  10.5 °C 29.7in /  1005.4hPa WNW 2.9mph /  4.7km/h 12mph /  19.3km/h 92% 0in /  0.0mm 0 W/m2
02:39 53.1 °F /  11.7 °C 50.7 °F /  10.4 °C 29.7in /  1005.4hPa WNW 6.9mph /  11.1km/h 9mph /  14.5km/h 92% 0in /  0.0mm 0 W/m2
02:44 53.1 °F /  11.7 °C 50.7 °F /  10.4 °C 29.7in /  1005.4hPa West 2mph /  3.2km/h 8mph /  12.9km/h 92% 0in /  0.0mm 0 W/m2
02:49 53.1 °F /  11.7 °C 50.7 °F /  10.4 °C 29.7in /  1005.4hPa NE 4mph /  6.4km/h 5mph /  8km/h 92% 0in /  0.0mm 0 W/m2
02:54 52.9 °F /  11.6 °C 50.5 °F /  10.3 °C 29.7in /  1005.8hPa NNW 6mph /  9.7km/h 13mph /  20.9km/h 92% 0in /  0.0mm 0 W/m2
02:59 52.7 °F /  11.5 °C 50.4 °F /  10.2 °C 29.7in /  1005.4hPa West 2mph /  3.2km/h 8mph /  12.9km/h 92% 0in /  0.0mm 0 W/m2
03:04 52.5 °F /  11.4 °C 50.2 °F /  10.1 °C 29.7in /  1005.4hPa NW 2.9mph /  4.7km/h 9mph /  14.5km/h 92% 0in /  0.0mm 0 W/m2
03:09 52.3 °F /  11.3 °C 50 °F /  10 °C 29.7in /  1005.4hPa NE 0.9mph /  1.4km/h 12mph /  19.3km/h 92% 0in /  0.0mm 0 W/m2
03:14 52.3 °F /  11.3 °C 50 °F /  10 °C 29.7in /  1005.4hPa NW 11mph /  17.7km/h 11mph /  17.7km/h 92% 0in /  0.0mm 0 W/m2
03:19 52.3 °F /  11.3 °C 50 °F /  10 °C 29.7in /  1005.4hPa WNW 4.9mph /  7.9km/h 6mph /  9.7km/h 92% 0in /  0.0mm 0 W/m2
03:24 52.3 °F /  11.3 °C 50 °F /  10 °C 29.7in /  1005.8hPa Calm   5mph /  8km/h 92% 0in /  0.0mm 0 W/m2
03:29 52.3 °F /  11.3 °C 50 °F /  10 °C 29.7in /  1005.8hPa NW 0.9mph /  1.4km/h 4mph /  6.4km/h 92% 0in /  0.0mm 0 W/m2
03:34 52.3 °F /  11.3 °C 50 °F /  10 °C 29.7in /  1005.8hPa Calm   7mph /  11.3km/h 92% 0in /  0.0mm 0 W/m2
03:39 52.3 °F /  11.3 °C 50 °F /  10 °C 29.7in /  1005.8hPa WNW 2mph /  3.2km/h 5mph /  8km/h 92% 0in /  0.0mm 0 W/m2
03:44 52.3 °F /  11.3 °C 50 °F /  10 °C 29.7in /  1005.4hPa North 2mph /  3.2km/h 3mph /  4.8km/h 92% 0in /  0.0mm 0 W/m2
03:49 52.3 °F /  11.3 °C 50 °F /  10 °C 29.7in /  1005.8hPa NNW 2mph /  3.2km/h 4mph /  6.4km/h 92% 0in /  0.0mm 0 W/m2
03:54 52.3 °F /  11.3 °C 50 °F /  10 °C 29.7in /  1005.8hPa Calm   4mph /  6.4km/h 92% 0in /  0.0mm 0 W/m2
03:59 52.3 °F /  11.3 °C 50 °F /  10 °C 29.7in /  1005.8hPa WSW 2.9mph /  4.7km/h 7mph /  11.3km/h 92% 0in /  0.0mm 0 W/m2
04:04 52.3 °F /  11.3 °C 50 °F /  10 °C 29.7in /  1005.8hPa WNW 4mph /  6.4km/h 7mph /  11.3km/h 92% 0in /  0.0mm 0 W/m2
04:09 52.3 °F /  11.3 °C 49.8 °F /  9.9 °C 29.7in /  1005.8hPa SSW 2mph /  3.2km/h 5mph /  8km/h 91% 0in /  0.0mm 0 W/m2
04:14 52.5 °F /  11.4 °C 50 °F /  10 °C 29.7in /  1005.8hPa NNW 2.9mph /  4.7km/h 6mph /  9.7km/h 91% 0in /  0.0mm 0 W/m2
04:19 52.5 °F /  11.4 °C 50 °F /  10 °C 29.7in /  1005.8hPa WNW 6mph /  9.7km/h 6mph /  9.7km/h 91% 0in /  0.0mm 0 W/m2
04:25 52.5 °F /  11.4 °C 50 °F /  10 °C 29.7in /  1005.8hPa NNW 2mph /  3.2km/h 4mph /  6.4km/h 91% 0in /  0.0mm 0 W/m2
04:30 52.5 °F /  11.4 °C 50 °F /  10 °C 29.7in /  1005.8hPa ENE 2.9mph /  4.7km/h 6mph /  9.7km/h 91% 0in /  0.0mm 0 W/m2
04:35 52.5 °F /  11.4 °C 50 °F /  10 °C 29.7in /  1005.8hPa ENE 2.9mph /  4.7km/h 3mph /  4.8km/h 91% 0in /  0.0mm 0 W/m2
04:40 52.3 °F /  11.3 °C 49.8 °F /  9.9 °C 29.7in /  1005.8hPa NNE 0.9mph /  1.4km/h 9mph /  14.5km/h 91% 0in /  0.0mm 0 W/m2
04:45 52.3 °F /  11.3 °C 49.8 °F /  9.9 °C 29.7in /  1005.8hPa North 2.9mph /  4.7km/h 4mph /  6.4km/h 91% 0in /  0.0mm 0 W/m2
04:50 52.3 °F /  11.3 °C 49.8 °F /  9.9 °C 29.7in /  1005.8hPa WSW 2.9mph /  4.7km/h 6mph /  9.7km/h 91% 0in /  0.0mm 0 W/m2
04:55 52.3 °F /  11.3 °C 49.8 °F /  9.9 °C 29.7in /  1005.8hPa West 2.9mph /  4.7km/h 9mph /  14.5km/h 91% 0in /  0.0mm 0 W/m2
05:00 52.5 °F /  11.4 °C 50 °F /  10 °C 29.7in /  1005.4hPa East 4mph /  6.4km/h 4mph /  6.4km/h 91% 0in /  0.0mm 0 W/m2
05:05 52.3 °F /  11.3 °C 49.8 °F /  9.9 °C 29.7in /  1005.4hPa WNW 2.9mph /  4.7km/h 9mph /  14.5km/h 91% 0in /  0.0mm 0 W/m2
05:10 52.3 °F /  11.3 °C 49.8 °F /  9.9 °C 29.7in /  1005.4hPa NW 2.9mph /  4.7km/h 3mph /  4.8km/h 91% 0in /  0.0mm 0 W/m2
05:15 52.3 °F /  11.3 °C 49.8 °F /  9.9 °C 29.7in /  1005.4hPa West 0.9mph /  1.4km/h 8mph /  12.9km/h 91% 0in /  0.0mm 0 W/m2
05:20 52.3 °F /  11.3 °C 49.8 °F /  9.9 °C 29.7in /  1005.4hPa NNE 2mph /  3.2km/h 7mph /  11.3km/h 91% 0in /  0.0mm 0 W/m2
05:25 52.3 °F /  11.3 °C 49.8 °F /  9.9 °C 29.7in /  1005.4hPa NE 2mph /  3.2km/h 3mph /  4.8km/h 91% 0in /  0.0mm 0 W/m2
05:30 52.3 °F /  11.3 °C 49.8 °F /  9.9 °C 29.7in /  1005.4hPa North 0.9mph /  1.4km/h 6mph /  9.7km/h 91% 0in /  0.0mm 0 W/m2
05:35 52.3 °F /  11.3 °C 49.8 °F /  9.9 °C 29.7in /  1005.4hPa NE 2mph /  3.2km/h 4mph /  6.4km/h 91% 0in /  0.0mm 0 W/m2
05:40 52.2 °F /  11.2 °C 49.8 °F /  9.9 °C 29.7in /  1005.4hPa ENE 2mph /  3.2km/h 3mph /  4.8km/h 92% 0in /  0.0mm 0 W/m2
05:45 52.2 °F /  11.2 °C 49.8 °F /  9.9 °C 29.7in /  1005.4hPa NNW 2mph /  3.2km/h 3mph /  4.8km/h 92% 0in /  0.0mm 0 W/m2
05:50 52.2 °F /  11.2 °C 49.8 °F /  9.9 °C 29.7in /  1005.4hPa SW 2mph /  3.2km/h 6mph /  9.7km/h 92% 0in /  0.0mm 0 W/m2
05:55 52.2 °F /  11.2 °C 49.6 °F /  9.8 °C 29.7in /  1005.4hPa Calm   5mph /  8km/h 91% 0in /  0.0mm 0 W/m2
06:00 52.2 °F /  11.2 °C 49.6 °F /  9.8 °C 29.7in /  1005.4hPa NNW 0.9mph /  1.4km/h 3mph /  4.8km/h 91% 0in /  0.0mm 0 W/m2
06:05 52.2 °F /  11.2 °C 49.6 °F /  9.8 °C 29.7in /  1005.4hPa East 8.1mph /  13km/h 8mph /  12.9km/h 91% 0in /  0.0mm 0 W/m2
06:10 52.2 °F /  11.2 °C 49.6 °F /  9.8 °C 29.7in /  1005.4hPa WSW 0.9mph /  1.4km/h 3mph /  4.8km/h 91% 0in /  0.0mm 0 W/m2
06:15 52.2 °F /  11.2 °C 49.6 °F /  9.8 °C 29.7in /  1005.1hPa ESE 8mph /  12.9km/h 8mph /  12.9km/h 91% 0in /  0.0mm 0 W/m2
06:20 52.2 °F /  11.2 °C 49.6 °F /  9.8 °C 29.7in /  1005.1hPa SW 0.9mph /  1.4km/h 4mph /  6.4km/h 91% 0in /  0.0mm 0 W/m2
06:25 52.2 °F /  11.2 °C 49.6 °F /  9.8 °C 29.7in /  1005.1hPa Calm   3mph /  4.8km/h 91% 0in /  0.0mm 0 W/m2
06:30 52.2 °F /  11.2 °C 49.6 °F /  9.8 °C 29.7in /  1005.1hPa ENE 2mph /  3.2km/h 3mph /  4.8km/h 91% 0in /  0.0mm 0 W/m2
06:35 52.2 °F /  11.2 °C 49.6 °F /  9.8 °C 29.7in /  1004.7hPa NNE 0.9mph /  1.4km/h 2mph /  3.2km/h 91% 0in /  0.0mm 0 W/m2
06:40 52 °F /  11.1 °C 49.5 °F /  9.7 °C 29.7in /  1004.7hPa ENE 2mph /  3.2km/h 3mph /  4.8km/h 91% 0in /  0.0mm 0 W/m2
06:45 52 °F /  11.1 °C 49.5 °F /  9.7 °C 29.7in /  1005.1hPa NE 2mph /  3.2km/h 3mph /  4.8km/h 91% 0in /  0.0mm 0 W/m2
06:50 51.6 °F /  10.9 °C 49.5 °F /  9.7 °C 29.7in /  1005.1hPa Calm   4mph /  6.4km/h 92% 0.01in /  0.2mm 0 W/m2
06:55 51.4 °F /  10.8 °C 49.3 °F /  9.6 °C 29.7in /  1005.1hPa Calm   1mph /  1.6km/h 92% 0.02in /  0.5mm 0 W/m2
07:00 51.3 °F /  10.7 °C 49.3 °F /  9.6 °C 29.7in /  1005.1hPa NNW 2mph /  3.2km/h 3mph /  4.8km/h 93% 0.02in /  0.5mm 0 W/m2
07:05 51.1 °F /  10.6 °C 49.1 °F /  9.5 °C 29.7in /  1005.1hPa Calm   4mph /  6.4km/h 93% 0.02in /  0.5mm 0 W/m2
07:10 51.1 °F /  10.6 °C 49.5 °F /  9.7 °C 29.7in /  1004.7hPa NNW 0.9mph /  1.4km/h 3mph /  4.8km/h 94% 0.02in /  0.5mm 0 W/m2
07:15 51.1 °F /  10.6 °C 49.5 °F /  9.7 °C 29.7in /  1004.7hPa ENE 2.9mph /  4.7km/h 5mph /  8km/h 94% 0.02in /  0.5mm 0 W/m2
07:20 51.1 °F /  10.6 °C 49.5 °F /  9.7 °C 29.7in /  1004.7hPa NE 2.9mph /  4.7km/h 3mph /  4.8km/h 94% 0.02in /  0.5mm 0 W/m2
07:25 51.1 °F /  10.6 °C 49.5 °F /  9.7 °C 29.7in /  1004.7hPa NE 0.9mph /  1.4km/h 6mph /  9.7km/h 94% 0.02in /  0.5mm 0 W/m2
07:30 50.9 °F /  10.5 °C 49.3 °F /  9.6 °C 29.7in /  1004.7hPa NNE 0.9mph /  1.4km/h 3mph /  4.8km/h 94% 0.03in /  0.8mm 0 W/m2
07:35 50.9 °F /  10.5 °C 49.3 °F /  9.6 °C 29.7in /  1004.7hPa SE 2mph /  3.2km/h 2mph /  3.2km/h 94% 0.03in /  0.8mm 0 W/m2
07:40 50.9 °F /  10.5 °C 49.3 °F /  9.6 °C 29.7in /  1004.7hPa North 0.9mph /  1.4km/h 3mph /  4.8km/h 94% 0.03in /  0.8mm 0 W/m2
07:45 50.9 °F /  10.5 °C 49.3 °F /  9.6 °C 29.7in /  1004.4hPa WSW 2mph /  3.2km/h 2mph /  3.2km/h 94% 0.04in /  1.0mm 0 W/m2
07:50 50.9 °F /  10.5 °C 49.5 °F /  9.7 °C 29.7in /  1004.4hPa NE 2mph /  3.2km/h 2mph /  3.2km/h 95% 0.04in /  1.0mm 0 W/m2
07:55 50.9 °F /  10.5 °C 49.5 °F /  9.7 °C 29.7in /  1004.4hPa NE 0.9mph /  1.4km/h 3mph /  4.8km/h 95% 0.03in /  0.8mm 0 W/m2
08:00 50.9 °F /  10.5 °C 49.5 °F /  9.7 °C 29.7in /  1004.4hPa ENE 2.9mph /  4.7km/h 3mph /  4.8km/h 95% 0.04in /  1.0mm 0 W/m2
08:05 50.7 °F /  10.4 °C 49.3 °F /  9.6 °C 29.7in /  1004.1hPa NE 2mph /  3.2km/h 4mph /  6.4km/h 95% 0.04in /  1.0mm 0 W/m2
08:10 50.9 °F /  10.5 °C 49.5 °F /  9.7 °C 29.7in /  1004.1hPa NNW 0.9mph /  1.4km/h 4mph /  6.4km/h 95% 0.05in /  1.3mm 9 W/m2
08:15 50.9 °F /  10.5 °C 49.5 °F /  9.7 °C 29.7in /  1004.1hPa NW 2.9mph /  4.7km/h 5mph /  8km/h 95% 0.04in /  1.0mm 25 W/m2
08:20 51.1 °F /  10.6 °C 49.6 °F /  9.8 °C 29.7in /  1004.1hPa NNE 2.9mph /  4.7km/h 9mph /  14.5km/h 95% 0.04in /  1.0mm 21 W/m2
08:25 51.1 °F /  10.6 °C 49.6 °F /  9.8 °C 29.7in /  1004.1hPa NE 2.9mph /  4.7km/h 6mph /  9.7km/h 95% 0.04in /  1.0mm 25 W/m2
08:30 51.3 °F /  10.7 °C 49.8 °F /  9.9 °C 29.7in /  1004.1hPa NNE 2mph /  3.2km/h 9mph /  14.5km/h 95% 0.03in /  0.8mm 18 W/m2
08:35 51.3 °F /  10.7 °C 49.8 °F /  9.9 °C 29.7in /  1004.1hPa North 2mph /  3.2km/h 3mph /  4.8km/h 95% 0.04in /  1.0mm 21 W/m2
08:40 51.4 °F /  10.8 °C 50 °F /  10 °C 29.6in /  1003.7hPa North 2.9mph /  4.7km/h 5mph /  8km/h 95% 0.04in /  1.0mm 12 W/m2
08:45 51.4 °F /  10.8 °C 50 °F /  10 °C 29.6in /  1003.7hPa ENE 2mph /  3.2km/h 3mph /  4.8km/h 95% 0.04in /  1.0mm 25 W/m2
08:50 51.4 °F /  10.8 °C 50 °F /  10 °C 29.6in /  1003.7hPa NNE 2mph /  3.2km/h 3mph /  4.8km/h 95% 0.04in /  1.0mm 25 W/m2
08:55 51.4 °F /  10.8 °C 50 °F /  10 °C 29.6in /  1003.7hPa NE 4.9mph /  7.9km/h 5mph /  8km/h 95% 0.05in /  1.3mm 39 W/m2
09:00 51.4 °F /  10.8 °C 50 °F /  10 °C 29.6in /  1003.7hPa East 0.9mph /  1.4km/h 3mph /  4.8km/h 95% 0.06in /  1.5mm 19 W/m2
09:05 51.4 °F /  10.8 °C 50 °F /  10 °C 29.6in /  1003.7hPa NE 2mph /  3.2km/h 5mph /  8km/h 95% 0.06in /  1.5mm 18 W/m2
09:10 51.6 °F /  10.9 °C 50.2 °F /  10.1 °C 29.6in /  1003.7hPa ENE 0.9mph /  1.4km/h 8mph /  12.9km/h 95% 0.08in /  2.0mm 26 W/m2
09:15 51.6 °F /  10.9 °C 50.2 °F /  10.1 °C 29.6in /  1003.4hPa NW 2.9mph /  4.7km/h 4mph /  6.4km/h 95% 0.08in /  2.0mm 32 W/m2
09:20 51.6 °F /  10.9 °C 50.2 °F /  10.1 °C 29.6in /  1003.4hPa East 2mph /  3.2km/h 4mph /  6.4km/h 95% 0.09in /  2.3mm 26 W/m2
09:25 51.6 °F /  10.9 °C 50 °F /  10 °C 29.6in /  1003.4hPa NE 2mph /  3.2km/h 3mph /  4.8km/h 94% 0.1in /  2.5mm 33 W/m2
09:30 51.8 °F /  11 °C 50.2 °F /  10.1 °C 29.6in /  1003.4hPa East 2mph /  3.2km/h 6mph /  9.7km/h 94% 0.1in /  2.5mm 40 W/m2
09:35 51.8 °F /  11 °C 50.4 °F /  10.2 °C 29.6in /  1003.4hPa WNW 2mph /  3.2km/h 4mph /  6.4km/h 95% 0.09in /  2.3mm 58 W/m2
09:40 52 °F /  11.1 °C 50.5 °F /  10.3 °C 29.6in /  1003.0hPa Calm   3mph /  4.8km/h 95% 0.09in /  2.3mm 46 W/m2
09:45 52.2 °F /  11.2 °C 50.5 °F /  10.3 °C 29.6in /  1003.0hPa NE 2mph /  3.2km/h 5mph /  8km/h 94% 0.09in /  2.3mm 49 W/m2
09:51 52.2 °F /  11.2 °C 50.5 °F /  10.3 °C 29.6in /  1003.0hPa ESE 4mph /  6.4km/h 7mph /  11.3km/h 94% 0.09in /  2.3mm 67 W/m2
09:56 52.2 °F /  11.2 °C 50.5 °F /  10.3 °C 29.6in /  1003.0hPa NE 2.9mph /  4.7km/h 4mph /  6.4km/h 94% 0.08in /  2.0mm 46 W/m2
10:01 52.2 °F /  11.2 °C 50.5 °F /  10.3 °C 29.6in /  1003.0hPa NW 2mph /  3.2km/h 4mph /  6.4km/h 94% 0.06in /  1.5mm 65 W/m2
10:06 52.2 °F /  11.2 °C 50.5 °F /  10.3 °C 29.6in /  1003.0hPa ENE 4mph /  6.4km/h 8mph /  12.9km/h 94% 0.05in /  1.3mm 47 W/m2
10:11 52.2 °F /  11.2 °C 50.5 °F /  10.3 °C 29.6in /  1002.7hPa ENE 4mph /  6.4km/h 5mph /  8km/h 94% 0.04in /  1.0mm 51 W/m2
10:16 52.2 °F /  11.2 °C 50.5 °F /  10.3 °C 29.6in /  1002.7hPa North 2mph /  3.2km/h 5mph /  8km/h 94% 0.05in /  1.3mm 69 W/m2
10:21 52.3 °F /  11.3 °C 50.9 °F /  10.5 °C 29.6in /  1002.7hPa NE 2.9mph /  4.7km/h 5mph /  8km/h 95% 0.06in /  1.5mm 77 W/m2
10:26 52.3 °F /  11.3 °C 50.9 °F /  10.5 °C 29.6in /  1002.7hPa SSW 2.9mph /  4.7km/h 9mph /  14.5km/h 95% 0.05in /  1.3mm 54 W/m2
10:31 52.3 °F /  11.3 °C 50.9 °F /  10.5 °C 29.6in /  1002.7hPa East 4.9mph /  7.9km/h 5mph /  8km/h 95% 0.06in /  1.5mm 60 W/m2
10:36 52.3 °F /  11.3 °C 50.9 °F /  10.5 °C 29.6in /  1002.7hPa ENE 4mph /  6.4km/h 5mph /  8km/h 95% 0.06in /  1.5mm 83 W/m2
10:41 52.3 °F /  11.3 °C 50.9 °F /  10.5 °C 29.6in /  1002.7hPa East 0.9mph /  1.4km/h 10mph /  16.1km/h 95% 0.06in /  1.5mm 60 W/m2
10:46 52.3 °F /  11.3 °C 50.9 °F /  10.5 °C 29.6in /  1002.7hPa North 4mph /  6.4km/h 10mph /  16.1km/h 95% 0.06in /  1.5mm 54 W/m2
10:51 52.5 °F /  11.4 °C 51.1 °F /  10.6 °C 29.6in /  1002.4hPa NNW 2mph /  3.2km/h 5mph /  8km/h 95% 0.06in /  1.5mm 56 W/m2
10:56 52.5 °F /  11.4 °C 51.1 °F /  10.6 °C 29.6in /  1002.7hPa ESE 4mph /  6.4km/h 7mph /  11.3km/h 95% 0.06in /  1.5mm 53 W/m2
11:01 52.5 °F /  11.4 °C 51.1 °F /  10.6 °C 29.6in /  1002.7hPa WNW 4mph /  6.4km/h 8mph /  12.9km/h 95% 0.06in /  1.5mm 47 W/m2
11:06 52.7 °F /  11.5 °C 51.3 °F /  10.7 °C 29.6in /  1002.7hPa NNE 0.9mph /  1.4km/h 5mph /  8km/h 95% 0.06in /  1.5mm 53 W/m2
11:11 52.9 °F /  11.6 °C 51.4 °F /  10.8 °C 29.6in /  1002.7hPa North 2mph /  3.2km/h 8mph /  12.9km/h 95% 0.06in /  1.5mm 47 W/m2
11:16 52.9 °F /  11.6 °C 51.4 °F /  10.8 °C 29.6in /  1002.7hPa NNW 2mph /  3.2km/h 3mph /  4.8km/h 95% 0.06in /  1.5mm 114 W/m2
11:21 53.1 °F /  11.7 °C 51.6 °F /  10.9 °C 29.6in /  1002.4hPa North 2.9mph /  4.7km/h 13mph /  20.9km/h 95% 0.04in /  1.0mm 149 W/m2
11:26 53.2 °F /  11.8 °C 51.8 °F /  11 °C 29.6in /  1002.7hPa NNW 0.9mph /  1.4km/h 3mph /  4.8km/h 95% 0.04in /  1.0mm 137 W/m2
11:31 53.2 °F /  11.8 °C 51.8 °F /  11 °C 29.6in /  1002.4hPa NE 4.9mph /  7.9km/h 13mph /  20.9km/h 95% 0.04in /  1.0mm 123 W/m2
11:36 53.4 °F /  11.9 °C 52 °F /  11.1 °C 29.6in /  1002.4hPa West 4mph /  6.4km/h 5mph /  8km/h 95% 0.04in /  1.0mm 84 W/m2
11:41 53.4 °F /  11.9 °C 52 °F /  11.1 °C 29.6in /  1002.7hPa SW 0.9mph /  1.4km/h 4mph /  6.4km/h 95% 0.04in /  1.0mm 65 W/m2
11:46 53.4 °F /  11.9 °C 52 °F /  11.1 °C 29.6in /  1002.4hPa NE 4mph /  6.4km/h 4mph /  6.4km/h 95% 0.04in /  1.0mm 56 W/m2
11:51 53.4 °F /  11.9 °C 52 °F /  11.1 °C 29.6in /  1002.4hPa North 2mph /  3.2km/h 4mph /  6.4km/h 95% 0.03in /  0.8mm 56 W/m2
11:56 53.4 °F /  11.9 °C 52 °F /  11.1 °C 29.6in /  1002.4hPa NW 4mph /  6.4km/h 8mph /  12.9km/h 95% 0.04in /  1.0mm 62 W/m2
12:01 53.4 °F /  11.9 °C 52 °F /  11.1 °C 29.6in /  1002.4hPa NE 0.9mph /  1.4km/h 9mph /  14.5km/h 95% 0.04in /  1.0mm 90 W/m2
12:06 53.8 °F /  12.1 °C 52.3 °F /  11.3 °C 29.6in /  1002.7hPa NE 4mph /  6.4km/h 4mph /  6.4km/h 95% 0.04in /  1.0mm 116 W/m2
12:11 54 °F /  12.2 °C 52.5 °F /  11.4 °C 29.6in /  1002.7hPa WNW 6.9mph /  11.1km/h 14mph /  22.5km/h 95% 0.04in /  1.0mm 69 W/m2
12:16 54 °F /  12.2 °C 52.5 °F /  11.4 °C 29.6in /  1003.0hPa West 10.1mph /  16.3km/h 13mph /  20.9km/h 95% 0.09in /  2.3mm 107 W/m2
12:21 54 °F /  12.2 °C 52.3 °F /  11.3 °C 29.6in /  1003.0hPa WNW 4.9mph /  7.9km/h 14mph /  22.5km/h 94% 0.09in /  2.3mm 171 W/m2
12:26 54.3 °F /  12.4 °C 52.7 °F /  11.5 °C 29.6in /  1002.7hPa SW 4.9mph /  7.9km/h 8mph /  12.9km/h 94% 0.08in /  2.0mm 185 W/m2
12:31 54.5 °F /  12.5 °C 52.5 °F /  11.4 °C 29.6in /  1002.7hPa SW 0.9mph /  1.4km/h 7mph /  11.3km/h 93% 0.07in /  1.8mm 260 W/m2
12:36 54.9 °F /  12.7 °C 52.9 °F /  11.6 °C 29.6in /  1002.7hPa WNW 2.9mph /  4.7km/h 7mph /  11.3km/h 93% 0.07in /  1.8mm 315 W/m2
12:41 55.2 °F /  12.9 °C 53.2 °F /  11.8 °C 29.6in /  1002.7hPa WNW 4.9mph /  7.9km/h 10mph /  16.1km/h 93% 0.07in /  1.8mm 211 W/m2
12:46 55.6 °F /  13.1 °C 53.2 °F /  11.8 °C 29.6in /  1003.0hPa SW 6.9mph /  11.1km/h 11mph /  17.7km/h 92% 0.07in /  1.8mm 267 W/m2
12:51 55.8 °F /  13.2 °C 53.4 °F /  11.9 °C 29.6in /  1002.7hPa West 4mph /  6.4km/h 6mph /  9.7km/h 92% 0.07in /  1.8mm 323 W/m2
12:56 55.9 °F /  13.3 °C 53.6 °F /  12 °C 29.6in /  1003.0hPa NW 2.9mph /  4.7km/h 5mph /  8km/h 92% 0.06in /  1.5mm 455 W/m2
13:01 56.1 °F /  13.4 °C 53.6 °F /  12 °C 29.6in /  1002.7hPa NNW 4.9mph /  7.9km/h 8mph /  12.9km/h 91% 0.06in /  1.5mm 185 W/m2
13:06 56.1 °F /  13.4 °C 53.2 °F /  11.8 °C 29.6in /  1002.7hPa North 6mph /  9.7km/h 6mph /  9.7km/h 90% 0.06in /  1.5mm 376 W/m2
13:11 56.5 °F /  13.6 °C 53.6 °F /  12 °C 29.6in /  1003.0hPa NE 4mph /  6.4km/h 7mph /  11.3km/h 90% 0.06in /  1.5mm 441 W/m2
13:16 56.7 °F /  13.7 °C 53.4 °F /  11.9 °C 29.6in /  1003.0hPa NW 8.1mph /  13km/h 11mph /  17.7km/h 89% 0.01in /  0.2mm 241 W/m2
13:21 56.7 °F /  13.7 °C 53.4 °F /  11.9 °C 29.6in /  1002.7hPa WNW 4mph /  6.4km/h 9mph /  14.5km/h 89% 0.01in /  0.2mm 199 W/m2
13:26 56.5 °F /  13.6 °C 53.2 °F /  11.8 °C 29.6in /  1002.7hPa WNW 2mph /  3.2km/h 9mph /  14.5km/h 89% 0.01in /  0.2mm 167 W/m2
13:31 56.7 °F /  13.7 °C 53.4 °F /  11.9 °C 29.6in /  1002.7hPa West 2mph /  3.2km/h 4mph /  6.4km/h 89% 0.01in /  0.2mm 156 W/m2
13:36 56.7 °F /  13.7 °C 53.4 °F /  11.9 °C 29.6in /  1002.7hPa Calm   10mph /  16.1km/h 89% 0in /  0.0mm 105 W/m2
13:41 56.5 °F /  13.6 °C 53.2 °F /  11.8 °C 29.6in /  1002.7hPa NNW 2.9mph /  4.7km/h 5mph /  8km/h 89% 0in /  0.0mm 134 W/m2
13:46 56.1 °F /  13.4 °C 53.2 °F /  11.8 °C 29.6in /  1002.7hPa NW 2mph /  3.2km/h 10mph /  16.1km/h 90% 0in /  0.0mm 116 W/m2
13:51 56.1 °F /  13.4 °C 53.2 °F /  11.8 °C 29.6in /  1003.0hPa WNW 2mph /  3.2km/h 5mph /  8km/h 90% 0in /  0.0mm 251 W/m2
13:56 56.1 °F /  13.4 °C 53.6 °F /  12 °C 29.6in /  1003.0hPa NW 2mph /  3.2km/h 9mph /  14.5km/h 91% 0.01in /  0.2mm 304 W/m2
14:01 56.1 °F /  13.4 °C 53.2 °F /  11.8 °C 29.6in /  1002.7hPa SW 2mph /  3.2km/h 14mph /  22.5km/h 90% 0.01in /  0.2mm 265 W/m2
14:06 56.5 °F /  13.6 °C 53.6 °F /  12 °C 29.6in /  1002.7hPa North 2mph /  3.2km/h 7mph /  11.3km/h 90% 0.01in /  0.2mm 237 W/m2
14:11 56.5 °F /  13.6 °C 53.6 °F /  12 °C 29.6in /  1003.0hPa West 2.9mph /  4.7km/h 4mph /  6.4km/h 90% 0.01in /  0.2mm 227 W/m2
14:16 56.5 °F /  13.6 °C 53.6 °F /  12 °C 29.6in /  1002.7hPa WNW 14.1mph /  22.7km/h 14mph /  22.5km/h 90% 0.01in /  0.2mm 206 W/m2
14:21 56.5 °F /  13.6 °C 53.2 °F /  11.8 °C 29.6in /  1002.7hPa WNW 13mph /  20.9km/h 18mph /  29km/h 89% 0.01in /  0.2mm 155 W/m2
14:26 56.7 °F /  13.7 °C 53.1 °F /  11.7 °C 29.6in /  1002.7hPa West 2mph /  3.2km/h 10mph /  16.1km/h 88% 0.01in /  0.2mm 155 W/m2
14:31 56.8 °F /  13.8 °C 53.2 °F /  11.8 °C 29.6in /  1002.7hPa WNW 2.9mph /  4.7km/h 8mph /  12.9km/h 88% 0.01in /  0.2mm 127 W/m2
14:36 56.7 °F /  13.7 °C 53.1 °F /  11.7 °C 29.6in /  1003.0hPa West 8.1mph /  13km/h 11mph /  17.7km/h 88% 0.01in /  0.2mm 153 W/m2
14:41 56.7 °F /  13.7 °C 53.1 °F /  11.7 °C 29.6in /  1003.0hPa NW 2.9mph /  4.7km/h 6mph /  9.7km/h 88% 0.01in /  0.2mm 188 W/m2
14:46 56.7 °F /  13.7 °C 53.1 °F /  11.7 °C 29.6in /  1003.0hPa West 6.9mph /  11.1km/h 7mph /  11.3km/h 88% 0.01in /  0.2mm 223 W/m2
14:51 56.7 °F /  13.7 °C 53.4 °F /  11.9 °C 29.6in /  1003.0hPa WNW 8.1mph /  13km/h 11mph /  17.7km/h 89% 0.01in /  0.2mm 190 W/m2
14:56 56.8 °F /  13.8 °C 53.2 °F /  11.8 °C 29.6in /  1003.0hPa West 4mph /  6.4km/h 8mph /  12.9km/h 88% 0in /  0.0mm 178 W/m2
15:01 56.8 °F /  13.8 °C 53.1 °F /  11.7 °C 29.6in /  1003.0hPa WNW 6.9mph /  11.1km/h 9mph /  14.5km/h 87% 0in /  0.0mm 162 W/m2
15:06 56.8 °F /  13.8 °C 53.1 °F /  11.7 °C 29.6in /  1003.0hPa West 2mph /  3.2km/h 9mph /  14.5km/h 87% 0in /  0.0mm 199 W/m2
15:11 56.8 °F /  13.8 °C 52.7 °F /  11.5 °C 29.6in /  1003.0hPa NW 4.9mph /  7.9km/h 12mph /  19.3km/h 86% 0in /  0.0mm 213 W/m2
15:16 56.7 °F /  13.7 °C 52.9 °F /  11.6 °C 29.6in /  1003.0hPa SSW 2mph /  3.2km/h 8mph /  12.9km/h 87% 0in /  0.0mm 251 W/m2
15:21 56.7 °F /  13.7 °C 52.5 °F /  11.4 °C 29.6in /  1002.7hPa WNW 2mph /  3.2km/h 9mph /  14.5km/h 86% 0in /  0.0mm 246 W/m2
15:26 56.8 °F /  13.8 °C 52.3 °F /  11.3 °C 29.6in /  1003.0hPa NW 8.1mph /  13km/h 9mph /  14.5km/h 85% 0in /  0.0mm 589 W/m2
15:31 57.4 °F /  14.1 °C 52.9 °F /  11.6 °C 29.6in /  1003.0hPa NNW 4.9mph /  7.9km/h 6mph /  9.7km/h 85% 0in /  0.0mm 538 W/m2
15:36 57.6 °F /  14.2 °C 52.7 °F /  11.5 °C 29.6in /  1003.0hPa WSW 2mph /  3.2km/h 8mph /  12.9km/h 84% 0in /  0.0mm 515 W/m2
15:41 57.7 °F /  14.3 °C 52.9 °F /  11.6 °C 29.6in /  1003.0hPa WNW 8.1mph /  13km/h 10mph /  16.1km/h 84% 0in /  0.0mm 490 W/m2
15:46 57.7 °F /  14.3 °C 52.9 °F /  11.6 °C 29.6in /  1003.0hPa NW 6.9mph /  11.1km/h 7mph /  11.3km/h 84% 0in /  0.0mm 422 W/m2
15:51 57.6 °F /  14.2 °C 52.7 °F /  11.5 °C 29.6in /  1003.0hPa NNW 8.1mph /  13km/h 8mph /  12.9km/h 84% 0in /  0.0mm 236 W/m2
15:56 57.6 °F /  14.2 °C 52.7 °F /  11.5 °C 29.6in /  1003.0hPa WNW 2mph /  3.2km/h 6mph /  9.7km/h 84% 0in /  0.0mm 98 W/m2
16:01 57.4 °F /  14.1 °C 52.3 °F /  11.3 °C 29.6in /  1003.0hPa West 2mph /  3.2km/h 8mph /  12.9km/h 83% 0in /  0.0mm 105 W/m2
16:06 57 °F /  13.9 °C 52.2 °F /  11.2 °C 29.6in /  1003.0hPa NW 2.9mph /  4.7km/h 12mph /  19.3km/h 84% 0in /  0.0mm 95 W/m2
16:11 56.8 °F /  13.8 °C 52.3 °F /  11.3 °C 29.6in /  1003.4hPa SW 4mph /  6.4km/h 7mph /  11.3km/h 85% 0in /  0.0mm 125 W/m2
16:16 56.5 °F /  13.6 °C 52.7 °F /  11.5 °C 29.6in /  1003.0hPa NW 4.9mph /  7.9km/h 12mph /  19.3km/h 87% 0.01in /  0.2mm 116 W/m2
16:21 55.9 °F /  13.3 °C 52.5 °F /  11.4 °C 29.6in /  1003.0hPa NW 4mph /  6.4km/h 6mph /  9.7km/h 88% 0.01in /  0.2mm 120 W/m2
16:26 55.8 °F /  13.2 °C 52.5 °F /  11.4 °C 29.6in /  1003.0hPa East 0.9mph /  1.4km/h 12mph /  19.3km/h 89% 0.01in /  0.2mm 130 W/m2
16:31 55.8 °F /  13.2 °C 52.9 °F /  11.6 °C 29.6in /  1003.0hPa NNW 0.9mph /  1.4km/h 3mph /  4.8km/h 90% 0.01in /  0.2mm 125 W/m2
16:36 55.8 °F /  13.2 °C 52.9 °F /  11.6 °C 29.6in /  1003.0hPa NNW 2mph /  3.2km/h 8mph /  12.9km/h 90% 0.01in /  0.2mm 244 W/m2
16:41 55.9 °F /  13.3 °C 53.1 °F /  11.7 °C 29.6in /  1002.7hPa Calm   6mph /  9.7km/h 90% 0.01in /  0.2mm 142 W/m2
16:46 55.9 °F /  13.3 °C 53.1 °F /  11.7 °C 29.6in /  1002.7hPa NW 0.9mph /  1.4km/h 3mph /  4.8km/h 90% 0.01in /  0.2mm 97 W/m2
16:51 55.9 °F /  13.3 °C 52.7 °F /  11.5 °C 29.6in /  1002.7hPa NE 2mph /  3.2km/h 9mph /  14.5km/h 89% 0.01in /  0.2mm 83 W/m2
16:56 56.1 °F /  13.4 °C 52.9 °F /  11.6 °C 29.6in /  1002.7hPa NW 2mph /  3.2km/h 5mph /  8km/h 89% 0.01in /  0.2mm 83 W/m2
17:01 56.1 °F /  13.4 °C 52.7 °F /  11.5 °C 29.6in /  1002.7hPa NNE 2mph /  3.2km/h 9mph /  14.5km/h 88% 0.01in /  0.2mm 67 W/m2
17:07 56.3 °F /  13.5 °C 52.5 °F /  11.4 °C 29.6in /  1003.0hPa SSW 2mph /  3.2km/h 7mph /  11.3km/h 87% 0.01in /  0.2mm 114 W/m2
17:12 56.5 °F /  13.6 °C 52.7 °F /  11.5 °C 29.6in /  1003.0hPa NW 2.9mph /  4.7km/h 8mph /  12.9km/h 87% 0.01in /  0.2mm 86 W/m2
17:17 56.5 °F /  13.6 °C 52.3 °F /  11.3 °C 29.6in /  1003.0hPa WSW 4mph /  6.4km/h 10mph /  16.1km/h 86% 0in /  0.0mm 144 W/m2
17:22 56.7 °F /  13.7 °C 52.2 °F /  11.2 °C 29.6in /  1003.0hPa NW 8.1mph /  13km/h 15mph /  24.1km/h 85% 0in /  0.0mm 105 W/m2
17:27 56.7 °F /  13.7 °C 52.5 °F /  11.4 °C 29.6in /  1003.0hPa WNW 2mph /  3.2km/h 12mph /  19.3km/h 86% 0in /  0.0mm 39 W/m2
17:32 56.7 °F /  13.7 °C 52.5 °F /  11.4 °C 29.6in /  1003.0hPa NNW 4.9mph /  7.9km/h 15mph /  24.1km/h 86% 0in /  0.0mm 81 W/m2
17:37 56.5 °F /  13.6 °C 52.3 °F /  11.3 °C 29.6in /  1003.0hPa WSW 4.9mph /  7.9km/h 8mph /  12.9km/h 86% 0in /  0.0mm 79 W/m2
17:42 56.5 °F /  13.6 °C 52 °F /  11.1 °C 29.6in /  1003.0hPa WNW 0.9mph /  1.4km/h 3mph /  4.8km/h 85% 0in /  0.0mm 69 W/m2
17:47 56.7 °F /  13.7 °C 52.2 °F /  11.2 °C 29.6in /  1003.0hPa WNW 2.9mph /  4.7km/h 10mph /  16.1km/h 85% 0in /  0.0mm 79 W/m2
17:52 56.7 °F /  13.7 °C 52.2 °F /  11.2 °C 29.6in /  1003.0hPa SW 2mph /  3.2km/h 4mph /  6.4km/h 85% 0in /  0.0mm 40 W/m2
17:57 56.7 °F /  13.7 °C 51.6 °F /  10.9 °C 29.6in /  1003.0hPa West 6mph /  9.7km/h 7mph /  11.3km/h 83% 0in /  0.0mm 42 W/m2
18:02 56.7 °F /  13.7 °C 51.6 °F /  10.9 °C 29.6in /  1003.0hPa SW 2mph /  3.2km/h 5mph /  8km/h 83% 0in /  0.0mm 70 W/m2
18:07 56.7 °F /  13.7 °C 51.6 °F /  10.9 °C 29.6in /  1003.0hPa SW 0.9mph /  1.4km/h 5mph /  8km/h 83% 0in /  0.0mm 49 W/m2
18:12 56.7 °F /  13.7 °C 51.6 °F /  10.9 °C 29.6in /  1003.0hPa South 0.9mph /  1.4km/h 3mph /  4.8km/h 83% 0in /  0.0mm 40 W/m2
18:17 56.5 °F /  13.6 °C 51.4 °F /  10.8 °C 29.6in /  1003.0hPa WSW 0.9mph /  1.4km/h 4mph /  6.4km/h 83% 0in /  0.0mm 25 W/m2
18:22 56.5 °F /  13.6 °C 51.4 °F /  10.8 °C 29.6in /  1003.0hPa Calm   4mph /  6.4km/h 83% 0in /  0.0mm 18 W/m2
18:27 56.1 °F /  13.4 °C 51.4 °F /  10.8 °C 29.6in /  1003.0hPa West 0.9mph /  1.4km/h 6mph /  9.7km/h 84% 0in /  0.0mm 14 W/m2
18:32 55.9 °F /  13.3 °C 51.3 °F /  10.7 °C 29.6in /  1003.0hPa Calm   2mph /  3.2km/h 84% 0in /  0.0mm 11 W/m2
18:37 55.8 °F /  13.2 °C 51.3 °F /  10.7 °C 29.6in /  1003.4hPa West 2.9mph /  4.7km/h 4mph /  6.4km/h 85% 0in /  0.0mm 9 W/m2
18:42 55.8 °F /  13.2 °C 51.3 °F /  10.7 °C 29.6in /  1003.0hPa Calm   6mph /  9.7km/h 85% 0in /  0.0mm 5 W/m2
18:47 55.6 °F /  13.1 °C 51.4 °F /  10.8 °C 29.6in /  1003.0hPa Calm   4mph /  6.4km/h 86% 0in /  0.0mm 0 W/m2
18:52 55.4 °F /  13 °C 51.6 °F /  10.9 °C 29.6in /  1003.4hPa SW 2mph /  3.2km/h 5mph /  8km/h 87% 0in /  0.0mm 0 W/m2
18:57 55.2 °F /  12.9 °C 51.4 °F /  10.8 °C 29.6in /  1003.4hPa NNW 2mph /  3.2km/h 4mph /  6.4km/h 87% 0.01in /  0.2mm 0 W/m2
19:02 55.2 °F /  12.9 °C 51.4 °F /  10.8 °C 29.6in /  1003.0hPa South 2.9mph /  4.7km/h 8mph /  12.9km/h 87% 0.02in /  0.5mm 0 W/m2
19:07 55 °F /  12.8 °C 51.3 °F /  10.7 °C 29.6in /  1003.0hPa WSW 2mph /  3.2km/h 8mph /  12.9km/h 87% 0.02in /  0.5mm 0 W/m2
19:12 54.9 °F /  12.7 °C 51.1 °F /  10.6 °C 29.6in /  1003.0hPa NW 4.9mph /  7.9km/h 7mph /  11.3km/h 87% 0.02in /  0.5mm 0 W/m2
19:17 54.9 °F /  12.7 °C 51.1 °F /  10.6 °C 29.6in /  1003.4hPa West 4mph /  6.4km/h 9mph /  14.5km/h 87% 0.02in /  0.5mm 0 W/m2
19:22 54.7 °F /  12.6 °C 50.9 °F /  10.5 °C 29.6in /  1003.0hPa NE 0.9mph /  1.4km/h 6mph /  9.7km/h 87% 0.02in /  0.5mm 0 W/m2
19:27 54.5 °F /  12.5 °C 50.7 °F /  10.4 °C 29.6in /  1003.4hPa NW 0.9mph /  1.4km/h 9mph /  14.5km/h 87% 0.02in /  0.5mm 0 W/m2
19:32 54.5 °F /  12.5 °C 51.1 °F /  10.6 °C 29.6in /  1003.4hPa WSW 4mph /  6.4km/h 9mph /  14.5km/h 88% 0.02in /  0.5mm 0 W/m2
19:37 54.3 °F /  12.4 °C 50.9 °F /  10.5 °C 29.6in /  1003.4hPa SSW 2mph /  3.2km/h 9mph /  14.5km/h 88% 0.02in /  0.5mm 0 W/m2
19:42 54.3 °F /  12.4 °C 50.9 °F /  10.5 °C 29.6in /  1003.7hPa NW 0.9mph /  1.4km/h 7mph /  11.3km/h 88% 0.02in /  0.5mm 0 W/m2
19:47 54.3 °F /  12.4 °C 50.9 °F /  10.5 °C 29.6in /  1003.7hPa WNW 8.9mph /  14.3km/h 13mph /  20.9km/h 88% 0.02in /  0.5mm 0 W/m2
19:52 54.3 °F /  12.4 °C 50.9 °F /  10.5 °C 29.6in /  1003.7hPa WNW 8.1mph /  13km/h 13mph /  20.9km/h 88% 0.02in /  0.5mm 0 W/m2
19:57 54.1 °F /  12.3 °C 50.7 °F /  10.4 °C 29.6in /  1003.7hPa WNW 4mph /  6.4km/h 10mph /  16.1km/h 88% 0.01in /  0.2mm 0 W/m2
20:02 54 °F /  12.2 °C 50.5 °F /  10.3 °C 29.6in /  1003.7hPa West 2mph /  3.2km/h 9mph /  14.5km/h 88% 0in /  0.0mm 0 W/m2
20:07 54 °F /  12.2 °C 50.7 °F /  10.4 °C 29.6in /  1003.7hPa WNW 6.9mph /  11.1km/h 10mph /  16.1km/h 89% 0in /  0.0mm 0 W/m2
20:12 53.8 °F /  12.1 °C 50.5 °F /  10.3 °C 29.6in /  1003.7hPa WNW 8.9mph /  14.3km/h 14mph /  22.5km/h 89% 0in /  0.0mm 0 W/m2
20:17 53.8 °F /  12.1 °C 50.5 °F /  10.3 °C 29.6in /  1003.7hPa NW 4mph /  6.4km/h 7mph /  11.3km/h 89% 0in /  0.0mm 0 W/m2
20:22 53.8 °F /  12.1 °C 50.5 °F /  10.3 °C 29.6in /  1003.7hPa WNW 2.9mph /  4.7km/h 5mph /  8km/h 89% 0in /  0.0mm 0 W/m2
20:27 53.6 °F /  12 °C 50.7 °F /  10.4 °C 29.6in /  1003.7hPa WSW 10.1mph /  16.3km/h 10mph /  16.1km/h 90% 0in /  0.0mm 0 W/m2
20:32 53.4 °F /  11.9 °C 50.2 °F /  10.1 °C 29.6in /  1003.7hPa SW 4mph /  6.4km/h 11mph /  17.7km/h 89% 0in /  0.0mm 0 W/m2
20:37 53.6 °F /  12 °C 50.4 °F /  10.2 °C 29.6in /  1003.7hPa NNW 4.9mph /  7.9km/h 9mph /  14.5km/h 89% 0in /  0.0mm 0 W/m2
20:42 53.4 °F /  11.9 °C 50.2 °F /  10.1 °C 29.7in /  1004.1hPa NW 2.9mph /  4.7km/h 8mph /  12.9km/h 89% 0in /  0.0mm 0 W/m2
20:47 53.4 °F /  11.9 °C 50.2 °F /  10.1 °C 29.7in /  1004.1hPa WNW 6.9mph /  11.1km/h 10mph /  16.1km/h 89% 0in /  0.0mm 0 W/m2
20:52 53.4 °F /  11.9 °C 50.2 °F /  10.1 °C 29.7in /  1004.1hPa NW 2mph /  3.2km/h 2mph /  3.2km/h 89% 0in /  0.0mm 0 W/m2
20:57 53.4 °F /  11.9 °C 50.5 °F /  10.3 °C 29.7in /  1004.1hPa North 0.9mph /  1.4km/h 3mph /  4.8km/h 90% 0in /  0.0mm 0 W/m2
21:02 53.2 °F /  11.8 °C 50.4 °F /  10.2 °C 29.7in /  1004.1hPa WSW 2mph /  3.2km/h 5mph /  8km/h 90% 0in /  0.0mm 0 W/m2
21:07 53.1 °F /  11.7 °C 50.2 °F /  10.1 °C 29.7in /  1004.4hPa Calm   3mph /  4.8km/h 90% 0in /  0.0mm 0 W/m2
21:12 53.1 °F /  11.7 °C 50.5 °F /  10.3 °C 29.7in /  1004.4hPa Calm   2mph /  3.2km/h 91% 0in /  0.0mm 0 W/m2
21:17 53.1 °F /  11.7 °C 50.5 °F /  10.3 °C 29.7in /  1004.4hPa South 0.9mph /  1.4km/h 2mph /  3.2km/h 91% 0in /  0.0mm 0 W/m2
21:22 53.2 °F /  11.8 °C 50.7 °F /  10.4 °C 29.7in /  1004.4hPa South 0.9mph /  1.4km/h 4mph /  6.4km/h 91% 0in /  0.0mm 0 W/m2
21:27 53.2 °F /  11.8 °C 50.7 °F /  10.4 °C 29.7in /  1004.4hPa WNW 2.9mph /  4.7km/h 12mph /  19.3km/h 91% 0in /  0.0mm 0 W/m2
21:32 53.2 °F /  11.8 °C 50.7 °F /  10.4 °C 29.7in /  1004.4hPa North 2mph /  3.2km/h 3mph /  4.8km/h 91% 0in /  0.0mm 0 W/m2
21:37 53.2 °F /  11.8 °C 50.7 °F /  10.4 °C 29.7in /  1004.4hPa NNE 4mph /  6.4km/h 5mph /  8km/h 91% 0in /  0.0mm 0 W/m2
21:42 53.2 °F /  11.8 °C 50.7 °F /  10.4 °C 29.7in /  1004.4hPa Calm   2mph /  3.2km/h 91% 0in /  0.0mm 0 W/m2
21:47 53.2 °F /  11.8 °C 50.4 °F /  10.2 °C 29.7in /  1004.4hPa South 0.9mph /  1.4km/h 6mph /  9.7km/h 90% 0in /  0.0mm 0 W/m2
21:52 53.4 °F /  11.9 °C 50.5 °F /  10.3 °C 29.7in /  1004.7hPa NW 4mph /  6.4km/h 5mph /  8km/h 90% 0in /  0.0mm 0 W/m2
21:57 53.4 °F /  11.9 °C 50.5 °F /  10.3 °C 29.7in /  1004.7hPa Calm   2mph /  3.2km/h 90% 0in /  0.0mm 0 W/m2
22:02 53.4 °F /  11.9 °C 50.5 °F /  10.3 °C 29.7in /  1004.7hPa West 4mph /  6.4km/h 4mph /  6.4km/h 90% 0in /  0.0mm 0 W/m2
22:07 53.4 °F /  11.9 °C 50.2 °F /  10.1 °C 29.7in /  1004.7hPa WNW 4mph /  6.4km/h 12mph /  19.3km/h 89% 0in /  0.0mm 0 W/m2
22:12 53.6 °F /  12 °C 50.4 °F /  10.2 °C 29.7in /  1004.7hPa NW 2.9mph /  4.7km/h 12mph /  19.3km/h 89% 0in /  0.0mm 0 W/m2
22:17 53.4 °F /  11.9 °C 50.2 °F /  10.1 °C 29.7in /  1005.1hPa West 2.9mph /  4.7km/h 8mph /  12.9km/h 89% 0in /  0.0mm 0 W/m2
22:22 53.4 °F /  11.9 °C 50.2 °F /  10.1 °C 29.7in /  1005.1hPa North 4mph /  6.4km/h 8mph /  12.9km/h 89% 0in /  0.0mm 0 W/m2
22:27 53.4 °F /  11.9 °C 50 °F /  10 °C 29.7in /  1005.1hPa WSW 2.9mph /  4.7km/h 8mph /  12.9km/h 88% 0in /  0.0mm 0 W/m2
22:32 53.4 °F /  11.9 °C 50.2 °F /  10.1 °C 29.7in /  1005.1hPa SW 4mph /  6.4km/h 8mph /  12.9km/h 89% 0in /  0.0mm 0 W/m2
22:37 53.2 °F /  11.8 °C 50 °F /  10 °C 29.7in /  1005.1hPa WSW 2mph /  3.2km/h 9mph /  14.5km/h 89% 0in /  0.0mm 0 W/m2
22:42 53.2 °F /  11.8 °C 50 °F /  10 °C 29.7in /  1005.1hPa West 6mph /  9.7km/h 6mph /  9.7km/h 89% 0in /  0.0mm 0 W/m2
22:47 53.2 °F /  11.8 °C 50 °F /  10 °C 29.7in /  1005.4hPa North 2mph /  3.2km/h 11mph /  17.7km/h 89% 0in /  0.0mm 0 W/m2
22:52 53.2 °F /  11.8 °C 50 °F /  10 °C 29.7in /  1005.4hPa WNW 2.9mph /  4.7km/h 6mph /  9.7km/h 89% 0in /  0.0mm 0 W/m2
22:57 53.2 °F /  11.8 °C 50 °F /  10 °C 29.7in /  1005.4hPa West 6mph /  9.7km/h 6mph /  9.7km/h 89% 0.01in /  0.2mm 0 W/m2
23:02 53.1 °F /  11.7 °C 49.8 °F /  9.9 °C 29.7in /  1005.4hPa NW 10.1mph /  16.3km/h 10mph /  16.1km/h 89% 0.01in /  0.2mm 0 W/m2
23:07 53.1 °F /  11.7 °C 49.8 °F /  9.9 °C 29.7in /  1005.4hPa West 0.9mph /  1.4km/h 8mph /  12.9km/h 89% 0.01in /  0.2mm 0 W/m2
23:12 52.9 °F /  11.6 °C 50 °F /  10 °C 29.7in /  1005.4hPa West 4mph /  6.4km/h 6mph /  9.7km/h 90% 0.01in /  0.2mm 0 W/m2
23:17 52.9 °F /  11.6 °C 50 °F /  10 °C 29.7in /  1005.4hPa WNW 2.9mph /  4.7km/h 5mph /  8km/h 90% 0.01in /  0.2mm 0 W/m2
23:23 52.9 °F /  11.6 °C 50 °F /  10 °C 29.7in /  1005.4hPa WNW 10.1mph /  16.3km/h 10mph /  16.1km/h 90% 0.01in /  0.2mm 0 W/m2
23:28 52.7 °F /  11.5 °C 49.8 °F /  9.9 °C 29.7in /  1005.8hPa WSW 2.9mph /  4.7km/h 8mph /  12.9km/h 90% 0.01in /  0.2mm 0 W/m2
23:33 52.7 °F /  11.5 °C 49.8 °F /  9.9 °C 29.7in /  1005.4hPa NW 4mph /  6.4km/h 9mph /  14.5km/h 90% 0.02in /  0.5mm 0 W/m2
23:38 52.5 °F /  11.4 °C 49.6 °F /  9.8 °C 29.7in /  1005.8hPa West 2mph /  3.2km/h 4mph /  6.4km/h 90% 0.02in /  0.5mm 0 W/m2
23:43 52.7 °F /  11.5 °C 49.8 °F /  9.9 °C 29.7in /  1005.8hPa NNW 2mph /  3.2km/h 6mph /  9.7km/h 90% 0.02in /  0.5mm 0 W/m2
23:48 52.7 °F /  11.5 °C 49.8 °F /  9.9 °C 29.7in /  1005.8hPa North 2mph /  3.2km/h 3mph /  4.8km/h 90% 0.02in /  0.5mm 0 W/m2
23:53 52.7 °F /  11.5 °C 50.2 °F /  10.1 °C 29.7in /  1005.4hPa NW 4mph /  6.4km/h 5mph /  8km/h 91% 0.02in /  0.5mm 0 W/m2
23:58 52.7 °F /  11.5 °C 49.8 °F /  9.9 °C 29.7in /  1005.4hPa WNW 2mph /  3.2km/h 10mph /  16.1km/h 90% 0.01in /  0.2mm 0 W/m2
Juneau County Weather
Compliments of Weather Underground - 2 mb